Alpine, AL

9:08 AM CST on December 19, 2014 (GMT -0600)
Sycamore,Alabama | Change Station
CLOSE
Current Station
Personal Weather Station
Location: Sycamore, AL
Elevation: 552 ft
Nearby Weather Stations

Elev 552 ft 33.26 °N, 86.21 °W | Updated 1 second ago

Partly Cloudy
Partly Cloudy
39.6 °F
Feels Like 40 °F
N
1.6
Wind Variable Wind from West
Gusts 3.1 mph

Today
High -- | Low -- °F
--% Chance of Precip.
Yesterday
High -- | Low -- °F
Precip. -- in
6:43 AM 4:40 PM
Waning Crescent, 7% visible
Pressure 30.25 in
Visibility 8.0 miles
Clouds Clear
Windchill 40 °F
Dew Point 38 °F
Humidity 93%
Rainfall 0.00 in
Snow Depth Not available.
UV 2 out of 12
Pollen 1.40 out of 12
Air Quality Not available.
Flu Activity Not available.
METAR KANB 191453Z AUTO 00000KT 8SM CLR 03/01 A3022 RMK AO2 SLP244 T00280006 51012

More Conditions Fewer Conditions

Pressure 30.25 in
Visibility 8.0 miles
Clouds Clear
Windchill 40 °F
Dew Point 38 °F
Humidity 93%
Rainfall 0.00 in
Snow Depth Not available.
UV 2 out of 12
Pollen 1.40 out of 12
Air Quality Not available.
Flu Activity Not available.
METAR KANB 191453Z AUTO 00000KT 8SM CLR 03/01 A3022 RMK AO2 SLP244 T00280006 51012

More Conditions Fewer Conditions

10-Day Weather Forecast

Almanac

Astronomy

Dec. 19, 2014 Rise Set
Actual Time
Civil Twilight
Nautical Twilight
Astronomical Twilight
Moon
Length of Visible Light
Length of Day
Tomorrow will be .
, % of the Moon is Illuminated

Today's Extremes

State Highs State Lows

Community

WunderPhotos

Upload Photos

1,778,993 photos uploaded!

WunderBlogs® & News

Nearby

Air Quality

  Air Quality AQ Index Pollutant
Not available.

Snow Depth

Station Depth Elevation

Earthquake Activity

City Distance Mag. Time & Date
Minimum magnitude displayed is 2.5.

Coastal Water Temperatures

Place Temperature

Nearby Weather Stations